Terminal Aerodrome Forecast
Issued by NWS

Home | Current Version | Previous Version | Text Only | Print | Product List | Glossary Off
Versions: 1 2 3 4 5 6 7 8 9 10 11 12 13 14 15 16 17 18 19

152
FTUS43 KBIS 100531
TAFMOT
TAF
KMOT 100531Z 1006/1106 12010KT 1 1/2SM -SN OVC020
     FM101000 12010KT 3SM -SN OVC015
     FM101300 12009KT P6SM OVC015
     FM101500 09008KT P6SM OVC008
     FM101800 06006KT P6SM OVC010
     FM101900 03006KT P6SM OVC010=

USA.gov is the U.S. government's official web portal to all federal, state and local government web resources and services.